createdAt,value
2018-06-30T00:01:40.204Z,5.05
2018-06-30T00:04:07.254Z,4.30
2018-06-30T00:06:34.285Z,3.67
2018-06-30T00:09:01.334Z,3.40
2018-06-30T00:11:28.456Z,3.95
2018-06-30T00:13:55.511Z,3.10
2018-06-30T00:16:22.647Z,2.87
2018-06-30T00:18:49.762Z,3.75
2018-06-30T00:21:16.860Z,5.05
2018-06-30T00:23:43.902Z,6.10
2018-06-30T00:26:10.950Z,3.80
2018-06-30T00:28:38.297Z,3.87
2018-06-30T00:31:05.637Z,4.10
2018-06-30T00:33:32.704Z,4.62
2018-06-30T00:35:59.764Z,3.87
2018-06-30T00:38:26.826Z,3.08
2018-06-30T00:40:54.227Z,3.02
2018-06-30T00:43:21.252Z,4.37
2018-06-30T00:45:48.414Z,3.40
2018-06-30T00:48:15.466Z,3.80
2018-06-30T00:50:42.613Z,5.03
2018-06-30T00:53:09.662Z,2.80
2018-06-30T00:55:36.704Z,3.50
2018-06-30T00:58:03.796Z,3.35
2018-06-30T01:00:30.856Z,4.30
2018-06-30T01:02:58.319Z,3.30
2018-06-30T01:05:25.377Z,4.45
2018-06-30T01:07:52.415Z,3.33
2018-06-30T01:10:20.202Z,2.67
2018-06-30T01:12:47.310Z,3.35
2018-06-30T01:15:14.356Z,4.08
2018-06-30T01:17:41.414Z,4.17
2018-06-30T01:20:08.449Z,4.35
2018-06-30T01:22:35.571Z,4.03
2018-06-30T01:25:02.607Z,4.42
2018-06-30T01:27:29.677Z,3.75
2018-06-30T01:29:56.704Z,3.42
2018-06-30T01:32:23.868Z,4.15
2018-06-30T01:34:50.915Z,4.00
2018-06-30T01:37:17.966Z,3.33
2018-06-30T01:39:45.009Z,3.45
2018-06-30T01:42:12.257Z,3.75
2018-06-30T01:44:39.271Z,2.98
2018-06-30T01:47:06.371Z,2.92
2018-06-30T01:49:33.381Z,2.87
2018-06-30T01:52:00.532Z,3.50
2018-06-30T01:54:27.585Z,3.65
2018-06-30T01:56:54.696Z,4.90
2018-06-30T01:59:21.747Z,5.60
2018-06-30T02:01:48.878Z,3.22
2018-06-30T02:04:15.920Z,3.70
2018-06-30T02:06:42.956Z,4.42
2018-06-30T02:09:11.167Z,2.58
2018-06-30T02:11:38.451Z,3.40
2018-06-30T02:14:05.576Z,3.77
2018-06-30T02:16:32.604Z,3.47
2018-06-30T02:18:59.636Z,4.50
2018-06-30T02:21:26.757Z,2.85
2018-06-30T02:23:53.801Z,3.83
2018-06-30T02:26:20.853Z,4.17
2018-06-30T02:28:47.974Z,2.55
2018-06-30T02:31:15.100Z,3.62
2018-06-30T02:33:42.138Z,3.33
2018-06-30T02:36:09.185Z,4.55
2018-06-30T02:38:36.254Z,4.00
2018-06-30T02:41:03.416Z,3.50
2018-06-30T02:43:30.450Z,4.10
2018-06-30T02:45:57.496Z,2.75
2018-06-30T02:48:24.553Z,3.65
2018-06-30T02:50:51.680Z,3.95
2018-06-30T02:53:18.715Z,3.15
2018-06-30T02:55:45.771Z,3.70
2018-06-30T02:58:12.800Z,3.40
2018-06-30T03:00:39.859Z,3.55
2018-06-30T03:03:06.905Z,3.72
2018-06-30T03:05:33.932Z,2.77
2018-06-30T03:08:00.967Z,3.95
2018-06-30T03:10:28.120Z,3.00
2018-06-30T03:12:55.201Z,3.52
2018-06-30T03:15:22.244Z,8.43
2018-06-30T03:17:49.288Z,2.83
2018-06-30T03:20:16.312Z,3.17
2018-06-30T03:22:43.380Z,2.80
2018-06-30T03:25:10.450Z,3.00
2018-06-30T03:27:37.563Z,3.75
2018-06-30T03:30:04.625Z,3.10
2018-06-30T03:32:31.786Z,3.15
2018-06-30T03:34:58.858Z,3.08
2018-06-30T03:37:25.906Z,3.05
2018-06-30T03:39:53.028Z,4.03
2018-06-30T03:42:20.691Z,2.75
2018-06-30T03:44:47.824Z,3.33
2018-06-30T03:47:15.481Z,3.50
2018-06-30T03:49:42.543Z,3.47
2018-06-30T03:52:09.654Z,3.98
2018-06-30T03:54:36.696Z,3.00
2018-06-30T03:57:03.744Z,3.22
2018-06-30T03:59:30.790Z,2.72
2018-06-30T04:01:57.886Z,2.92
2018-06-30T04:04:24.950Z,4.08
2018-06-30T04:06:52.000Z,2.47
2018-06-30T04:09:19.062Z,3.25
2018-06-30T04:11:46.149Z,3.25
2018-06-30T04:14:13.201Z,3.33
2018-06-30T04:16:40.251Z,3.37
2018-06-30T04:19:12.484Z,3.52
2018-06-30T04:21:39.864Z,3.00
2018-06-30T04:24:07.056Z,4.03
2018-06-30T04:26:35.130Z,3.40
2018-06-30T04:29:02.415Z,4.75
2018-06-30T04:31:29.496Z,3.60
2018-06-30T04:33:56.631Z,3.00
2018-06-30T04:36:23.660Z,3.52
2018-06-30T04:38:50.819Z,3.70
2018-06-30T04:41:17.971Z,4.12
2018-06-30T04:43:45.005Z,3.27
2018-06-30T04:46:12.055Z,4.53
2018-06-30T04:48:40.106Z,4.72
2018-06-30T04:51:07.268Z,4.35
2018-06-30T04:53:34.246Z,5.80
2018-06-30T04:56:01.292Z,3.62
2018-06-30T04:58:28.336Z,3.55
2018-06-30T05:00:55.472Z,3.35
2018-06-30T05:03:22.607Z,4.17
2018-06-30T05:05:49.649Z,3.52
2018-06-30T05:08:16.714Z,5.05
2018-06-30T05:10:43.769Z,3.50
2018-06-30T05:13:10.846Z,3.92
2018-06-30T05:15:37.898Z,2.95
2018-06-30T05:18:05.028Z,4.03
2018-06-30T05:20:32.073Z,4.05
2018-06-30T05:22:59.199Z,3.37
2018-06-30T05:25:26.334Z,3.35
2018-06-30T05:27:53.519Z,3.50
2018-06-30T05:30:21.032Z,3.02
2018-06-30T05:32:48.274Z,4.60
2018-06-30T05:35:15.351Z,3.08
2018-06-30T05:37:42.376Z,3.47
2018-06-30T05:40:09.412Z,5.28
2018-06-30T05:42:36.452Z,4.00
2018-06-30T05:45:03.496Z,5.12
2018-06-30T05:47:30.532Z,3.05
2018-06-30T05:49:57.576Z,3.40
2018-06-30T05:52:24.680Z,3.98
2018-06-30T05:54:51.720Z,3.15
2018-06-30T05:57:18.752Z,4.10
2018-06-30T05:59:45.780Z,3.95
2018-06-30T06:02:12.885Z,2.90
2018-06-30T06:04:39.925Z,2.75
2018-06-30T06:07:07.058Z,3.30
2018-06-30T06:09:34.173Z,2.10
2018-06-30T06:12:01.208Z,2.70
2018-06-30T06:14:28.270Z,3.35
2018-06-30T06:16:55.330Z,2.33
2018-06-30T06:19:22.478Z,3.60
2018-06-30T06:21:49.700Z,3.08
2018-06-30T06:24:17.452Z,3.27
2018-06-30T06:26:44.654Z,4.62
2018-06-30T06:29:11.958Z,3.95
2018-06-30T06:31:39.317Z,3.60
2018-06-30T06:34:06.348Z,4.22
2018-06-30T06:36:33.409Z,3.00
2018-06-30T06:41:34.264Z,2.77
2018-06-30T06:44:01.602Z,4.25
2018-06-30T06:46:28.672Z,3.37
2018-06-30T06:48:55.740Z,2.95
2018-06-30T06:51:22.914Z,3.27
2018-06-30T06:53:50.130Z,2.72
2018-06-30T06:56:17.280Z,3.58
2018-06-30T06:58:44.380Z,3.80
2018-06-30T07:01:11.790Z,2.65
2018-06-30T07:03:39.100Z,3.90
2018-06-30T07:06:06.140Z,2.60
2018-06-30T07:08:33.231Z,3.15
2018-06-30T07:11:00.386Z,2.55
2018-06-30T07:13:27.653Z,3.27
2018-06-30T07:15:54.835Z,3.85
2018-06-30T07:18:21.899Z,3.22
2018-06-30T07:20:48.994Z,2.25
2018-06-30T07:23:16.173Z,2.42
2018-06-30T07:25:44.469Z,3.20
2018-06-30T07:28:11.546Z,3.22
2018-06-30T07:30:38.675Z,3.72
2018-06-30T07:33:06.035Z,3.45
2018-06-30T07:35:33.232Z,3.25
2018-06-30T07:38:00.387Z,3.50
2018-06-30T07:40:27.444Z,3.10
2018-06-30T07:42:54.604Z,2.85
2018-06-30T07:45:21.654Z,2.75
2018-06-30T07:47:48.672Z,3.62
2018-06-30T07:50:15.753Z,4.20
2018-06-30T07:52:42.886Z,2.30
2018-06-30T07:55:10.364Z,3.27
2018-06-30T07:57:37.612Z,3.22
2018-06-30T08:00:04.792Z,3.60
2018-06-30T08:02:31.952Z,4.25
2018-06-30T08:04:59.070Z,3.45
2018-06-30T08:07:26.155Z,3.87
2018-06-30T08:09:53.264Z,3.42
2018-06-30T08:12:21.264Z,3.75
2018-06-30T08:14:48.293Z,3.95
2018-06-30T08:17:15.365Z,3.92
2018-06-30T08:19:42.408Z,3.92
2018-06-30T08:22:09.519Z,2.70
2018-06-30T08:24:37.579Z,2.72
2018-06-30T08:27:04.707Z,2.62
2018-06-30T08:29:31.776Z,2.60
2018-06-30T08:31:59.031Z,3.45
2018-06-30T08:34:26.114Z,2.62
2018-06-30T08:36:53.166Z,2.22
2018-06-30T08:39:20.426Z,1.95
2018-06-30T08:41:47.682Z,2.72
2018-06-30T08:44:14.811Z,4.28
2018-06-30T08:46:41.968Z,2.75
2018-06-30T08:49:09.380Z,2.37
2018-06-30T08:51:36.498Z,2.40
2018-06-30T08:54:03.661Z,2.45
2018-06-30T08:56:37.455Z,2.72
2018-06-30T08:59:04.998Z,1.75
2018-06-30T09:01:32.115Z,2.70
2018-06-30T09:03:59.166Z,1.82
2018-06-30T09:06:26.374Z,2.10
2018-06-30T09:08:53.649Z,2.50
2018-06-30T09:11:20.795Z,2.72
2018-06-30T09:13:47.825Z,3.15
2018-06-30T09:16:14.974Z,2.50
2018-06-30T09:18:42.013Z,2.00
2018-06-30T09:21:09.072Z,2.00
2018-06-30T09:23:36.123Z,2.05
2018-06-30T09:26:04.088Z,2.30
2018-06-30T09:28:31.164Z,2.60
2018-06-30T09:30:58.290Z,2.08
2018-06-30T09:33:25.357Z,2.35
2018-06-30T09:35:52.407Z,2.50
2018-06-30T09:38:19.536Z,2.35
2018-06-30T09:40:47.165Z,2.40
2018-06-30T09:43:14.267Z,1.92
2018-06-30T09:45:41.301Z,1.82
2018-06-30T09:48:08.499Z,1.82
2018-06-30T09:50:35.540Z,3.12
2018-06-30T09:53:02.637Z,1.98
2018-06-30T09:55:30.730Z,2.50
2018-06-30T09:57:58.703Z,1.80
2018-06-30T10:00:31.445Z,2.10
2018-06-30T10:02:59.779Z,2.87
2018-06-30T10:05:26.828Z,2.15
2018-06-30T10:07:53.898Z,2.20
2018-06-30T10:10:21.066Z,1.55
2018-06-30T10:12:48.180Z,2.12
2018-06-30T10:15:15.221Z,1.70
2018-06-30T10:17:42.265Z,2.37
2018-06-30T10:20:09.331Z,3.72
2018-06-30T10:22:36.400Z,2.37
2018-06-30T10:25:03.437Z,1.35
2018-06-30T10:27:30.562Z,2.77
2018-06-30T10:29:57.614Z,2.02
2018-06-30T10:32:24.682Z,1.90
2018-06-30T10:34:51.835Z,2.00
2018-06-30T10:37:19.021Z,2.12
2018-06-30T10:39:46.027Z,1.87
2018-06-30T10:42:13.233Z,1.32
2018-06-30T10:44:40.227Z,1.80
2018-06-30T10:47:08.284Z,1.22
2018-06-30T10:49:35.341Z,1.47
2018-06-30T10:52:02.690Z,1.98
2018-06-30T10:54:29.850Z,1.35
2018-06-30T10:56:56.931Z,1.25
2018-06-30T10:59:23.976Z,1.72
2018-06-30T11:01:51.160Z,1.62
2018-06-30T11:04:18.286Z,1.35
2018-06-30T11:06:45.571Z,1.52
2018-06-30T11:09:12.816Z,1.25
2018-06-30T11:11:40.040Z,1.20
2018-06-30T11:14:07.100Z,1.85
2018-06-30T11:16:34.186Z,1.27
2018-06-30T11:19:01.251Z,2.30
2018-06-30T11:21:28.350Z,1.20
2018-06-30T11:23:55.404Z,1.50
2018-06-30T11:26:22.449Z,0.95
2018-06-30T11:28:50.355Z,1.25
2018-06-30T11:31:17.808Z,0.98
2018-06-30T11:33:44.836Z,1.57
2018-06-30T11:36:11.880Z,1.05
2018-06-30T11:38:39.374Z,1.00
2018-06-30T11:41:06.566Z,1.00
2018-06-30T11:43:33.718Z,1.10
2018-06-30T11:46:00.790Z,1.50
2018-06-30T11:48:27.852Z,1.30
2018-06-30T11:50:54.970Z,1.10
2018-06-30T11:53:22.000Z,1.20
2018-06-30T11:55:49.075Z,1.02
2018-06-30T11:58:16.111Z,1.25
2018-06-30T12:00:43.167Z,1.37
2018-06-30T12:03:10.252Z,1.27
2018-06-30T12:05:38.212Z,1.20
2018-06-30T12:08:05.378Z,1.65
2018-06-30T12:10:32.416Z,1.82
2018-06-30T12:12:59.472Z,1.47
2018-06-30T12:15:26.500Z,1.35
2018-06-30T12:17:53.532Z,0.98
2018-06-30T12:20:21.033Z,1.20
2018-06-30T12:22:48.161Z,0.90
2018-06-30T12:25:15.156Z,1.37
2018-06-30T12:27:42.235Z,1.07
2018-06-30T12:30:09.282Z,1.15
2018-06-30T12:32:36.380Z,1.25
2018-06-30T12:35:03.470Z,1.15
2018-06-30T12:37:30.522Z,1.10
2018-06-30T12:39:59.663Z,0.93
2018-06-30T12:42:29.009Z,1.20
2018-06-30T12:44:56.107Z,1.35
2018-06-30T12:47:23.094Z,1.25
2018-06-30T12:49:50.140Z,1.30
2018-06-30T12:52:17.255Z,1.00
2018-06-30T12:54:44.397Z,1.30
2018-06-30T12:57:11.419Z,1.47
2018-06-30T12:59:38.453Z,0.90
2018-06-30T13:02:05.593Z,1.10
2018-06-30T13:04:32.617Z,1.10
2018-06-30T13:06:59.656Z,1.30
2018-06-30T13:09:26.697Z,0.90
2018-06-30T13:11:53.837Z,1.15
2018-06-30T13:14:21.665Z,0.90
2018-06-30T13:16:48.700Z,1.07
2018-06-30T13:19:15.750Z,1.02
2018-06-30T13:21:42.839Z,0.90
2018-06-30T13:24:10.920Z,1.20
2018-06-30T13:26:37.968Z,0.98
2018-06-30T13:29:05.027Z,1.27
2018-06-30T13:31:32.132Z,0.90
2018-06-30T13:33:59.184Z,1.02
2018-06-30T13:36:26.233Z,0.90
2018-06-30T13:38:53.300Z,1.40
2018-06-30T13:41:21.169Z,1.10
2018-06-30T13:43:48.253Z,1.45
2018-06-30T13:46:15.316Z,1.22
2018-06-30T13:48:42.327Z,1.30
2018-06-30T13:51:09.431Z,1.65
2018-06-30T13:53:36.487Z,1.67
2018-06-30T13:56:04.208Z,1.42
2018-06-30T13:58:31.269Z,1.65
2018-06-30T14:00:58.499Z,1.00
2018-06-30T14:03:25.521Z,1.22
2018-06-30T14:05:52.577Z,1.45
2018-06-30T14:08:20.318Z,0.80
2018-06-30T14:10:47.530Z,0.90
2018-06-30T14:13:14.578Z,1.40
2018-06-30T14:15:41.744Z,1.77
2018-06-30T14:18:09.480Z,0.80
2018-06-30T14:20:36.554Z,1.30
2018-06-30T14:23:03.726Z,1.02
2018-06-30T14:25:30.790Z,1.25
2018-06-30T14:27:57.917Z,0.90
2018-06-30T14:30:25.093Z,1.12
2018-06-30T14:32:53.629Z,0.95
2018-06-30T14:35:21.286Z,0.95
2018-06-30T14:37:48.677Z,1.22
2018-06-30T14:40:22.144Z,1.05
2018-06-30T14:42:49.434Z,1.40
2018-06-30T14:45:16.535Z,1.57
2018-06-30T14:47:43.600Z,0.80
2018-06-30T14:50:10.632Z,1.17
2018-06-30T14:52:37.893Z,1.10
2018-06-30T14:55:05.246Z,0.70
2018-06-30T14:57:32.288Z,1.15
2018-06-30T14:59:59.342Z,1.55
2018-06-30T15:02:26.498Z,1.22
2018-06-30T15:04:55.068Z,0.82
2018-06-30T15:07:22.717Z,1.10
2018-06-30T15:09:49.776Z,1.02
2018-06-30T15:12:19.141Z,1.00
2018-06-30T15:14:46.270Z,0.90
2018-06-30T15:17:13.548Z,0.93
2018-06-30T15:19:41.182Z,0.70
2018-06-30T15:22:09.138Z,1.32
2018-06-30T15:24:37.210Z,1.20
2018-06-30T15:27:04.822Z,1.17
2018-06-30T15:29:32.016Z,0.95
2018-06-30T15:32:01.383Z,1.20
2018-06-30T15:34:28.588Z,1.40
2018-06-30T15:36:56.766Z,0.88
2018-06-30T15:39:24.766Z,0.70
2018-06-30T15:41:52.931Z,1.10
2018-06-30T15:44:20.031Z,0.88
2018-06-30T15:46:47.104Z,1.40
2018-06-30T15:49:14.166Z,0.90
2018-06-30T15:51:41.386Z,1.10
2018-06-30T15:54:08.440Z,0.80
2018-06-30T15:56:35.580Z,1.45
2018-06-30T15:59:02.717Z,1.10
2018-06-30T16:01:29.837Z,1.05
2018-06-30T16:03:56.855Z,0.93
2018-06-30T16:06:23.888Z,1.25
2018-06-30T16:08:50.958Z,0.90
2018-06-30T16:11:18.084Z,1.07
2018-06-30T16:13:45.104Z,0.85
2018-06-30T16:16:12.188Z,0.82
2018-06-30T16:18:39.314Z,0.85
2018-06-30T16:21:06.517Z,0.90
2018-06-30T16:23:33.636Z,1.25
2018-06-30T16:26:00.672Z,1.00
2018-06-30T16:28:28.264Z,1.00
2018-06-30T16:30:55.412Z,0.98
2018-06-30T16:33:22.463Z,1.10
2018-06-30T16:35:49.574Z,1.12
2018-06-30T16:38:16.982Z,0.95
2018-06-30T16:40:44.657Z,1.20
2018-06-30T16:43:11.705Z,1.00
2018-06-30T16:45:39.013Z,1.12
2018-06-30T16:48:06.059Z,1.15
2018-06-30T16:50:33.165Z,0.90
2018-06-30T16:53:00.423Z,1.00
2018-06-30T16:55:28.612Z,0.90
2018-06-30T16:57:55.660Z,1.10
2018-06-30T17:00:22.821Z,1.10
2018-06-30T17:02:50.079Z,1.32
2018-06-30T17:05:17.177Z,0.95
2018-06-30T17:07:44.245Z,0.80
2018-06-30T17:10:11.978Z,1.10
2018-06-30T17:12:39.706Z,1.00
2018-06-30T17:15:06.797Z,0.90
2018-06-30T17:17:33.880Z,0.90
2018-06-30T17:20:00.944Z,0.98
2018-06-30T17:22:29.049Z,1.00
2018-06-30T17:24:56.126Z,1.15
2018-06-30T17:27:23.203Z,0.80
2018-06-30T17:29:50.717Z,0.72
2018-06-30T17:32:17.844Z,0.85
2018-06-30T17:34:44.898Z,0.80
2018-06-30T17:37:12.016Z,0.70
2018-06-30T17:39:39.056Z,1.07
2018-06-30T17:42:06.171Z,1.10
2018-06-30T17:44:33.250Z,0.78
2018-06-30T17:47:00.292Z,1.12
2018-06-30T17:49:27.706Z,0.90
2018-06-30T17:51:54.750Z,1.00
2018-06-30T17:54:21.804Z,0.90
2018-06-30T17:56:48.844Z,0.70
2018-06-30T17:59:17.608Z,0.80
2018-06-30T18:01:44.684Z,1.10
2018-06-30T18:04:11.731Z,0.70
2018-06-30T18:06:38.840Z,1.10
2018-06-30T18:09:06.792Z,0.82
2018-06-30T18:11:33.876Z,0.90
2018-06-30T18:14:00.915Z,0.90
2018-06-30T18:16:28.126Z,1.15
2018-06-30T18:18:55.222Z,1.10
2018-06-30T18:21:22.862Z,0.88
2018-06-30T18:23:50.392Z,0.80
2018-06-30T18:26:17.434Z,1.00
2018-06-30T18:28:44.499Z,1.17
2018-06-30T18:31:11.895Z,0.80
2018-06-30T18:33:38.970Z,0.98
2018-06-30T18:36:06.064Z,0.90
2018-06-30T18:38:33.314Z,1.05
2018-06-30T18:41:00.364Z,1.20
2018-06-30T18:43:27.439Z,0.78
2018-06-30T18:45:54.491Z,1.12
2018-06-30T18:48:21.592Z,0.85
2018-06-30T18:50:48.812Z,0.78
2018-06-30T18:53:15.982Z,0.80
2018-06-30T18:55:43.060Z,1.17
2018-06-30T18:58:10.204Z,0.98
2018-06-30T19:00:37.330Z,0.80
2018-06-30T19:03:04.421Z,1.02
2018-06-30T19:05:31.521Z,1.10
2018-06-30T19:07:58.679Z,1.27
2018-06-30T19:10:25.819Z,1.42
2018-06-30T19:12:52.908Z,1.05
2018-06-30T19:15:20.004Z,2.95
2018-06-30T19:17:47.552Z,1.47
2018-06-30T19:20:14.832Z,1.30
2018-06-30T19:22:41.946Z,1.62
2018-06-30T19:25:09.974Z,1.35
2018-06-30T19:27:37.008Z,1.50
2018-06-30T19:30:04.365Z,1.40
2018-06-30T19:32:31.500Z,1.32
2018-06-30T19:34:59.572Z,1.85
2018-06-30T19:37:26.618Z,1.47
2018-06-30T19:39:53.674Z,1.15
2018-06-30T19:42:22.037Z,1.45
2018-06-30T19:44:49.157Z,1.77
2018-06-30T19:47:16.184Z,1.42
2018-06-30T19:49:43.220Z,1.80
2018-06-30T19:52:10.331Z,1.62
2018-06-30T19:54:37.382Z,1.02
2018-06-30T19:57:04.664Z,3.20
2018-06-30T19:59:31.700Z,1.35
2018-06-30T20:01:58.822Z,1.00
2018-06-30T20:04:25.857Z,1.85
2018-06-30T20:06:52.982Z,0.98
2018-06-30T20:09:20.081Z,1.00
2018-06-30T20:11:47.248Z,1.27
2018-06-30T20:14:14.296Z,1.47
2018-06-30T20:16:41.362Z,1.00
2018-06-30T20:19:08.398Z,1.10
2018-06-30T20:21:35.489Z,1.10
2018-06-30T20:24:02.552Z,1.00
2018-06-30T20:26:29.601Z,1.40
2018-06-30T20:28:56.728Z,1.30
2018-06-30T20:31:23.790Z,1.10
2018-06-30T20:33:51.065Z,1.20
2018-06-30T20:36:18.083Z,1.72
2018-06-30T20:38:45.159Z,1.00
2018-06-30T20:41:12.257Z,1.60
2018-06-30T20:43:40.376Z,1.15
2018-06-30T20:46:07.527Z,1.00
2018-06-30T20:48:34.804Z,1.20
2018-06-30T20:51:01.929Z,1.30
2018-06-30T20:53:29.580Z,1.40
2018-06-30T20:55:56.635Z,1.22
2018-06-30T20:58:23.686Z,0.85
2018-06-30T21:00:50.811Z,1.22
2018-06-30T21:03:17.850Z,1.27
2018-06-30T21:05:45.713Z,1.37
2018-06-30T21:08:12.781Z,1.22
2018-06-30T21:10:40.460Z,1.15
2018-06-30T21:13:07.786Z,1.25
2018-06-30T21:15:35.100Z,1.17
2018-06-30T21:18:02.156Z,1.50
2018-06-30T21:20:29.205Z,1.25
2018-06-30T21:22:56.258Z,0.88
2018-06-30T21:25:23.336Z,1.35
2018-06-30T21:27:50.393Z,1.25
2018-06-30T21:30:17.464Z,1.35
2018-06-30T21:32:44.590Z,1.10
2018-06-30T21:35:11.652Z,1.20
2018-06-30T21:37:38.980Z,1.10
2018-06-30T21:40:06.005Z,1.22
2018-06-30T21:42:33.147Z,1.30
2018-06-30T21:45:00.255Z,1.15
2018-06-30T21:47:27.337Z,1.40
2018-06-30T21:49:54.376Z,1.10
2018-06-30T21:52:21.574Z,1.40
2018-06-30T21:54:48.604Z,1.35
2018-06-30T21:57:15.624Z,1.20
2018-06-30T21:59:42.672Z,1.37
2018-06-30T22:02:09.819Z,1.10
2018-06-30T22:04:36.882Z,1.07
2018-06-30T22:07:03.924Z,1.45
2018-06-30T22:09:31.004Z,1.25
2018-06-30T22:11:58.127Z,1.52
2018-06-30T22:14:25.140Z,1.07
2018-06-30T22:16:52.189Z,1.40
2018-06-30T22:19:19.227Z,1.15
2018-06-30T22:21:46.423Z,1.67
2018-06-30T22:24:13.575Z,1.12
2018-06-30T22:26:40.615Z,1.92
2018-06-30T22:29:07.775Z,1.52
2018-06-30T22:31:34.893Z,1.52
2018-06-30T22:34:01.956Z,1.17
2018-06-30T22:36:28.995Z,1.45
2018-06-30T22:38:56.040Z,1.20
2018-06-30T22:41:23.149Z,1.50
2018-06-30T22:43:50.230Z,1.17
2018-06-30T22:46:17.286Z,1.20
2018-06-30T22:48:44.336Z,1.40
2018-06-30T22:51:11.462Z,1.30
2018-06-30T22:53:38.562Z,2.35
2018-06-30T22:56:06.334Z,1.45
2018-06-30T22:58:33.384Z,1.15
2018-06-30T23:01:00.482Z,1.37
2018-06-30T23:03:27.536Z,1.37
2018-06-30T23:05:54.603Z,1.07
2018-06-30T23:08:21.658Z,0.95
2018-06-30T23:10:49.357Z,1.20
2018-06-30T23:13:16.398Z,1.20
2018-06-30T23:15:43.455Z,1.20
2018-06-30T23:18:10.500Z,1.75
2018-06-30T23:20:37.567Z,1.30
2018-06-30T23:23:06.006Z,1.35
2018-06-30T23:25:33.760Z,1.50
2018-06-30T23:28:01.090Z,1.40
2018-06-30T23:30:28.690Z,1.60
2018-06-30T23:32:55.728Z,0.95
2018-06-30T23:35:24.140Z,1.32
2018-06-30T23:37:51.454Z,0.93
2018-06-30T23:40:18.511Z,1.10
2018-06-30T23:42:45.575Z,0.90
2018-06-30T23:45:12.739Z,1.17
2018-06-30T23:47:39.763Z,1.02
2018-06-30T23:50:06.785Z,1.10
2018-06-30T23:52:34.384Z,1.20
2018-06-30T23:55:01.525Z,1.10
2018-06-30T23:57:28.578Z,1.40
2018-06-30T23:59:55.630Z,1.42
